sensor_id;sensor_type;location;lat;lon;timestamp;pressure;altitude;pressure_sealevel;temperature;humidity
62111;BME280;48102;47.526;19.072;2022-08-05T03:38:26;100345.06;;;19.03;78.51
62111;BME280;48102;47.526;19.072;2022-08-05T03:41:39;100345.06;;;19.03;78.51
62111;BME280;48102;47.526;19.072;2022-08-05T03:44:48;100338.87;;;18.49;82.29
62111;BME280;48102;47.526;19.072;2022-08-05T03:47:53;100340.72;;;18.49;82.88
62111;BME280;48102;47.526;19.072;2022-08-05T03:54:51;100351.66;;;18.67;78.66
62111;BME280;48102;47.526;19.072;2022-08-05T03:58:17;100344.34;;;18.80;78.52
62111;BME280;48102;47.526;19.072;2022-08-05T04:01:21;100342.34;;;18.93;77.93
62111;BME280;48102;47.526;19.072;2022-08-05T04:04:28;100351.00;;;19.07;77.41
62111;BME280;48102;47.526;19.072;2022-08-05T04:07:32;100351.78;;;19.18;76.18
62111;BME280;48102;47.526;19.072;2022-08-05T04:10:57;100346.50;;;19.28;76.78
62111;BME280;48102;47.526;19.072;2022-08-05T04:14:00;100361.63;;;19.39;76.90
62111;BME280;48102;47.526;19.072;2022-08-05T04:17:03;100353.62;;;19.48;76.29
62111;BME280;48102;47.526;19.072;2022-08-05T04:20:16;100359.16;;;19.57;76.69
62111;BME280;48102;47.526;19.072;2022-08-05T04:23:26;100364.44;;;19.68;76.54
62111;BME280;48102;47.526;19.072;2022-08-05T04:26:49;100358.16;;;19.78;75.15
62111;BME280;48102;47.526;19.072;2022-08-05T04:29:52;100360.72;;;19.90;74.39
62111;BME280;48102;47.526;19.072;2022-08-05T04:32:55;100359.50;;;20.03;74.61
62111;BME280;48102;47.526;19.072;2022-08-05T04:35:57;100354.47;;;20.20;74.21
62111;BME280;48102;47.526;19.072;2022-08-05T04:39:20;100360.41;;;20.33;73.07
62111;BME280;48102;47.526;19.072;2022-08-05T04:42:23;100358.22;;;20.48;71.17
62111;BME280;48102;47.526;19.072;2022-08-05T04:45:29;100369.22;;;20.64;69.47
62111;BME280;48102;47.526;19.072;2022-08-05T04:48:50;100359.59;;;20.81;67.93
62111;BME280;48102;47.526;19.072;2022-08-05T04:51:53;100358.91;;;20.98;67.66
62111;BME280;48102;47.526;19.072;2022-08-05T04:55:04;100362.66;;;21.15;66.15
62111;BME280;48102;47.526;19.072;2022-08-05T04:58:17;100363.78;;;21.32;65.78
62111;BME280;48102;47.526;19.072;2022-08-05T05:01:23;100360.50;;;21.48;65.18
62111;BME280;48102;47.526;19.072;2022-08-05T05:04:46;100366.09;;;21.64;65.10
62111;BME280;48102;47.526;19.072;2022-08-05T05:07:53;100360.09;;;21.80;65.14
62111;BME280;48102;47.526;19.072;2022-08-05T05:11:02;100359.63;;;21.94;63.93
62111;BME280;48102;47.526;19.072;2022-08-05T05:14:07;100356.41;;;22.09;61.21
62111;BME280;48102;47.526;19.072;2022-08-05T05:17:17;100350.44;;;22.24;61.19
62111;BME280;48102;47.526;19.072;2022-08-05T05:20:26;100353.13;;;22.42;60.41
62111;BME280;48102;47.526;19.072;2022-08-05T05:23:30;100348.91;;;22.58;59.37
62111;BME280;48102;47.526;19.072;2022-08-05T05:26:53;100347.91;;;22.76;57.64
62111;BME280;48102;47.526;19.072;2022-08-05T05:29:58;100355.97;;;22.94;56.45
62111;BME280;48102;47.526;19.072;2022-08-05T05:33:07;100356.09;;;23.11;54.52
62111;BME280;48102;47.526;19.072;2022-08-05T05:36:18;100352.00;;;23.24;55.57
62111;BME280;48102;47.526;19.072;2022-08-05T05:39:21;100344.88;;;23.41;53.77
62111;BME280;48102;47.526;19.072;2022-08-05T05:42:25;100351.66;;;23.53;53.06
62111;BME280;48102;47.526;19.072;2022-08-05T05:45:28;100349.78;;;23.72;53.75
62111;BME280;48102;47.526;19.072;2022-08-05T05:48:31;100348.97;;;23.80;51.99
62111;BME280;48102;47.526;19.072;2022-08-05T05:51:36;100352.56;;;23.96;52.33
62111;BME280;48102;47.526;19.072;2022-08-05T05:54:52;100353.44;;;24.13;52.61
62111;BME280;48102;47.526;19.072;2022-08-05T05:57:54;100356.84;;;24.23;51.06
62111;BME280;48102;47.526;19.072;2022-08-05T06:01:03;100348.44;;;24.35;51.23
62111;BME280;48102;47.526;19.072;2022-08-05T06:04:16;100349.72;;;24.48;51.28
62111;BME280;48102;47.526;19.072;2022-08-05T06:07:23;100348.53;;;24.59;49.54
62111;BME280;48102;47.526;19.072;2022-08-05T06:10:43;100352.41;;;24.73;50.65
62111;BME280;48102;47.526;19.072;2022-08-05T06:13:54;100352.75;;;24.86;48.91
62111;BME280;48102;47.526;19.072;2022-08-05T06:17:02;100351.91;;;25.02;47.97
62111;BME280;48102;47.526;19.072;2022-08-05T06:20:24;100349.37;;;25.17;49.15
62111;BME280;48102;47.526;19.072;2022-08-05T06:23:30;100346.50;;;25.35;48.06
62111;BME280;48102;47.526;19.072;2022-08-05T06:26:45;100354.38;;;25.52;47.04
62111;BME280;48102;47.526;19.072;2022-08-05T06:29:54;100350.44;;;25.71;45.90
62111;BME280;48102;47.526;19.072;2022-08-05T06:33:09;100347.69;;;25.88;46.05
62111;BME280;48102;47.526;19.072;2022-08-05T06:36:12;100353.88;;;26.05;43.81
62111;BME280;48102;47.526;19.072;2022-08-05T06:39:17;100351.44;;;26.18;43.78
62111;BME280;48102;47.526;19.072;2022-08-05T06:42:23;100348.50;;;26.27;42.83
62111;BME280;48102;47.526;19.072;2022-08-05T06:45:26;100356.25;;;26.31;42.55
62111;BME280;48102;47.526;19.072;2022-08-05T06:48:49;100356.03;;;26.40;42.13
62111;BME280;48102;47.526;19.072;2022-08-05T06:52:00;100347.66;;;26.58;41.80
62111;BME280;48102;47.526;19.072;2022-08-05T06:55:04;100350.88;;;26.76;41.20
62111;BME280;48102;47.526;19.072;2022-08-05T06:58:08;100348.59;;;26.88;41.16
62111;BME280;48102;47.526;19.072;2022-08-05T07:01:31;100346.78;;;27.04;40.15
62111;BME280;48102;47.526;19.072;2022-08-05T07:04:34;100350.22;;;27.20;38.55
62111;BME280;48102;47.526;19.072;2022-08-05T07:07:39;100341.13;;;27.28;38.65
62111;BME280;48102;47.526;19.072;2022-08-05T07:10:45;100345.84;;;27.34;38.26
62111;BME280;48102;47.526;19.072;2022-08-05T07:13:56;100356.19;;;27.45;38.52
62111;BME280;48102;47.526;19.072;2022-08-05T07:17:31;100352.09;;;27.64;37.03
62111;BME280;48102;47.526;19.072;2022-08-05T07:20:54;100352.31;;;27.78;36.50
62111;BME280;48102;47.526;19.072;2022-08-05T07:23:57;100351.81;;;27.89;36.34
62111;BME280;48102;47.526;19.072;2022-08-05T07:27:03;100350.66;;;28.13;36.23
62111;BME280;48102;47.526;19.072;2022-08-05T07:30:10;100348.09;;;28.26;35.64
62111;BME280;48102;47.526;19.072;2022-08-05T07:33:32;100345.09;;;28.36;36.13
62111;BME280;48102;47.526;19.072;2022-08-05T07:36:38;100346.34;;;28.55;35.74
62111;BME280;48102;47.526;19.072;2022-08-05T07:39:42;100336.72;;;28.73;35.69
62111;BME280;48102;47.526;19.072;2022-08-05T07:43:05;100339.09;;;28.83;35.66
62111;BME280;48102;47.526;19.072;2022-08-05T07:46:27;100344.53;;;29.05;33.97
62111;BME280;48102;47.526;19.072;2022-08-05T07:49:32;100338.56;;;29.16;33.35
62111;BME280;48102;47.526;19.072;2022-08-05T07:52:45;100337.62;;;29.30;32.79
62111;BME280;48102;47.526;19.072;2022-08-05T07:55:49;100347.28;;;29.39;34.02
62111;BME280;48102;47.526;19.072;2022-08-05T07:59:11;100330.31;;;29.59;32.68
62111;BME280;48102;47.526;19.072;2022-08-05T08:02:15;100334.53;;;29.74;32.15
62111;BME280;48102;47.526;19.072;2022-08-05T08:05:19;100338.59;;;29.92;33.36
62111;BME280;48102;47.526;19.072;2022-08-05T08:08:22;100342.22;;;30.12;31.49
62111;BME280;48102;47.526;19.072;2022-08-05T08:11:27;100336.88;;;30.26;31.20
62111;BME280;48102;47.526;19.072;2022-08-05T08:14:51;100345.28;;;30.37;32.44
62111;BME280;48102;47.526;19.072;2022-08-05T08:17:54;100335.87;;;30.46;32.09
62111;BME280;48102;47.526;19.072;2022-08-05T08:21:04;100334.44;;;30.57;30.47
62111;BME280;48102;47.526;19.072;2022-08-05T08:24:19;100330.66;;;30.65;32.35
62111;BME280;48102;47.526;19.072;2022-08-05T08:27:42;100327.59;;;30.75;31.67
62111;BME280;48102;47.526;19.072;2022-08-05T08:30:49;100326.94;;;30.92;31.43
62111;BME280;48102;47.526;19.072;2022-08-05T08:33:52;100330.28;;;31.08;30.68
62111;BME280;48102;47.526;19.072;2022-08-05T08:36:55;100332.81;;;31.09;31.67
62111;BME280;48102;47.526;19.072;2022-08-05T08:40:06;100327.72;;;31.26;31.42
62111;BME280;48102;47.526;19.072;2022-08-05T08:43:11;100328.37;;;31.41;28.85
62111;BME280;48102;47.526;19.072;2022-08-05T08:46:34;100331.09;;;31.48;29.82
62111;BME280;48102;47.526;19.072;2022-08-05T08:49:43;100323.56;;;31.43;29.81
62111;BME280;48102;47.526;19.072;2022-08-05T08:53:09;100328.34;;;31.55;29.66
62111;BME280;48102;47.526;19.072;2022-08-05T08:56:14;100332.31;;;31.65;30.46
62111;BME280;48102;47.526;19.072;2022-08-05T08:59:19;100327.66;;;31.72;28.92
62111;BME280;48102;47.526;19.072;2022-08-05T09:02:23;100323.22;;;31.85;30.64
62111;BME280;48102;47.526;19.072;2022-08-05T09:05:28;100311.84;;;31.94;29.86
62111;BME280;48102;47.526;19.072;2022-08-05T09:08:51;100316.88;;;31.97;29.53
62111;BME280;48102;47.526;19.072;2022-08-05T09:11:53;100318.72;;;32.10;29.66
62111;BME280;48102;47.526;19.072;2022-08-05T09:15:10;100311.09;;;32.26;28.99
62111;BME280;48102;47.526;19.072;2022-08-05T09:18:16;100298.41;;;32.44;29.34
62111;BME280;48102;47.526;19.072;2022-08-05T09:21:19;100302.53;;;32.54;27.49
62111;BME280;48102;47.526;19.072;2022-08-05T09:24:56;100306.81;;;32.68;30.03
62111;BME280;48102;47.526;19.072;2022-08-05T09:28:14;100309.00;;;32.84;28.33
62111;BME280;48102;47.526;19.072;2022-08-05T09:31:22;100302.44;;;32.92;27.01
62111;BME280;48102;47.526;19.072;2022-08-05T09:34:50;100300.03;;;33.02;28.31
62111;BME280;48102;47.526;19.072;2022-08-05T09:37:55;100297.47;;;33.07;27.27
62111;BME280;48102;47.526;19.072;2022-08-05T09:41:18;100282.53;;;33.10;27.30
62111;BME280;48102;47.526;19.072;2022-08-05T09:44:38;100285.66;;;33.13;27.28
62111;BME280;48102;47.526;19.072;2022-08-05T09:47:41;100283.91;;;33.19;27.67
62111;BME280;48102;47.526;19.072;2022-08-05T09:51:05;100277.56;;;33.25;26.17
62111;BME280;48102;47.526;19.072;2022-08-05T09:54:28;100274.16;;;33.48;30.88
62111;BME280;48102;47.526;19.072;2022-08-05T09:57:33;100278.56;;;33.49;26.15
62111;BME280;48102;47.526;19.072;2022-08-05T10:00:52;100275.03;;;33.42;27.23
62111;BME280;48102;47.526;19.072;2022-08-05T10:03:57;100271.13;;;33.38;28.11
62111;BME280;48102;47.526;19.072;2022-08-05T10:07:01;100264.34;;;33.59;27.86
62111;BME280;48102;47.526;19.072;2022-08-05T10:10:36;100263.59;;;33.70;27.42
62111;BME280;48102;47.526;19.072;2022-08-05T10:13:39;100258.91;;;33.89;26.73
62111;BME280;48102;47.526;19.072;2022-08-05T10:16:50;100265.59;;;34.11;28.79
62111;BME280;48102;47.526;19.072;2022-08-05T10:19:54;100253.94;;;34.28;25.14
62111;BME280;48102;47.526;19.072;2022-08-05T10:23:14;100255.16;;;34.20;25.50
62111;BME280;48102;47.526;19.072;2022-08-05T10:26:37;100252.22;;;34.33;26.57
62111;BME280;48102;47.526;19.072;2022-08-05T10:29:53;100252.62;;;34.60;27.25
62111;BME280;48102;47.526;19.072;2022-08-05T10:33:16;100238.81;;;34.55;24.86
62111;BME280;48102;47.526;19.072;2022-08-05T10:36:20;100243.25;;;34.68;26.85
62111;BME280;48102;47.526;19.072;2022-08-05T10:39:31;100232.75;;;34.77;26.66
62111;BME280;48102;47.526;19.072;2022-08-05T10:43:01;100233.00;;;34.87;25.83
62111;BME280;48102;47.526;19.072;2022-08-05T10:46:17;100235.16;;;34.85;24.88
62111;BME280;48102;47.526;19.072;2022-08-05T10:49:25;100233.47;;;34.95;23.90
62111;BME280;48102;47.526;19.072;2022-08-05T10:52:49;100223.84;;;35.05;25.12
62111;BME280;48102;47.526;19.072;2022-08-05T10:56:02;100231.78;;;35.18;25.56
62111;BME280;48102;47.526;19.072;2022-08-05T10:59:28;100230.84;;;35.12;22.66
62111;BME280;48102;47.526;19.072;2022-08-05T11:06:20;100214.69;;;35.11;23.47
62111;BME280;48102;47.526;19.072;2022-08-05T11:12:48;100203.72;;;35.63;23.63
62111;BME280;48102;47.526;19.072;2022-08-05T11:16:20;100218.22;;;35.92;26.04
62111;BME280;48102;47.526;19.072;2022-08-05T11:19:29;100208.81;;;36.16;22.44
62111;BME280;48102;47.526;19.072;2022-08-05T11:22:53;100203.09;;;36.01;21.88
62111;BME280;48102;47.526;19.072;2022-08-05T11:26:05;100201.06;;;35.97;23.89
62111;BME280;48102;47.526;19.072;2022-08-05T11:29:37;100202.75;;;36.31;24.39
62111;BME280;48102;47.526;19.072;2022-08-05T11:32:43;100194.03;;;36.51;21.41
62111;BME280;48102;47.526;19.072;2022-08-05T11:35:59;100195.00;;;36.79;23.93
62111;BME280;48102;47.526;19.072;2022-08-05T11:39:10;100200.25;;;36.97;21.96
62111;BME280;48102;47.526;19.072;2022-08-05T11:42:22;100196.16;;;37.22;22.96
62111;BME280;48102;47.526;19.072;2022-08-05T11:45:29;100190.97;;;37.25;20.29
62111;BME280;48102;47.526;19.072;2022-08-05T11:48:53;100188.38;;;37.35;20.84
62111;BME280;48102;47.526;19.072;2022-08-05T11:51:56;100195.16;;;37.77;20.04
62111;BME280;48102;47.526;19.072;2022-08-05T11:54:59;100192.41;;;38.04;20.65
62111;BME280;48102;47.526;19.072;2022-08-05T11:58:09;100198.22;;;38.34;21.36
62111;BME280;48102;47.526;19.072;2022-08-05T12:01:16;100196.44;;;38.93;19.90
62111;BME280;48102;47.526;19.072;2022-08-05T12:04:21;100200.63;;;39.10;19.63
62111;BME280;48102;47.526;19.072;2022-08-05T12:07:33;100195.53;;;39.34;17.74
62111;BME280;48102;47.526;19.072;2022-08-05T12:10:58;100191.28;;;39.95;18.50
62111;BME280;48102;47.526;19.072;2022-08-05T12:14:07;100184.66;;;40.01;17.47
62111;BME280;48102;47.526;19.072;2022-08-05T12:17:13;100185.78;;;40.41;18.58
62111;BME280;48102;47.526;19.072;2022-08-05T12:20:36;100179.66;;;42.62;17.26
62111;BME280;48102;47.526;19.072;2022-08-05T12:27:01;100176.91;;;46.96;12.42
62111;BME280;48102;47.526;19.072;2022-08-05T12:30:11;100173.06;;;47.92;11.25
62111;BME280;48102;47.526;19.072;2022-08-05T12:33:17;100171.09;;;48.66;10.75
62111;BME280;48102;47.526;19.072;2022-08-05T12:36:37;100168.66;;;49.53;12.04
62111;BME280;48102;47.526;19.072;2022-08-05T12:39:43;100176.75;;;51.03;10.78
62111;BME280;48102;47.526;19.072;2022-08-05T12:42:54;100174.69;;;51.81;9.12
62111;BME280;48102;47.526;19.072;2022-08-05T12:45:57;100164.53;;;52.20;8.11
62111;BME280;48102;47.526;19.072;2022-08-05T12:52:16;100163.34;;;53.90;8.46
62111;BME280;48102;47.526;19.072;2022-08-05T12:55:30;100153.94;;;55.01;7.93
62111;BME280;48102;47.526;19.072;2022-08-05T12:58:36;100151.12;;;54.74;7.36
62111;BME280;48102;47.526;19.072;2022-08-05T13:05:09;100142.22;;;54.72;7.80
62111;BME280;48102;47.526;19.072;2022-08-05T13:08:17;100142.16;;;56.74;7.38
62111;BME280;48102;47.526;19.072;2022-08-05T13:11:21;100136.25;;;58.38;6.24
62111;BME280;48102;47.526;19.072;2022-08-05T13:15:05;100132.53;;;57.70;6.15
62111;BME280;48102;47.526;19.072;2022-08-05T13:18:19;100122.47;;;58.19;6.84
62111;BME280;48102;47.526;19.072;2022-08-05T13:21:25;100117.97;;;58.75;6.43
62111;BME280;48102;47.526;19.072;2022-08-05T13:24:39;100118.31;;;59.06;5.60
62111;BME280;48102;47.526;19.072;2022-08-05T13:28:02;100114.75;;;58.69;6.40
62111;BME280;48102;47.526;19.072;2022-08-05T13:31:06;100110.53;;;59.28;5.17
62111;BME280;48102;47.526;19.072;2022-08-05T13:34:15;100102.66;;;59.57;5.81
62111;BME280;48102;47.526;19.072;2022-08-05T13:37:26;100102.50;;;59.01;5.80
62111;BME280;48102;47.526;19.072;2022-08-05T13:40:36;100097.81;;;60.13;5.38
62111;BME280;48102;47.526;19.072;2022-08-05T13:43:53;100089.78;;;60.83;4.30
62111;BME280;48102;47.526;19.072;2022-08-05T13:46:57;100087.00;;;61.72;4.28
62111;BME280;48102;47.526;19.072;2022-08-05T13:50:06;100083.66;;;61.50;4.68
62111;BME280;48102;47.526;19.072;2022-08-05T13:53:14;100084.94;;;61.72;4.23
62111;BME280;48102;47.526;19.072;2022-08-05T13:56:17;100065.91;;;59.84;4.43
62111;BME280;48102;47.526;19.072;2022-08-05T13:59:22;100067.87;;;59.31;5.68
62111;BME280;48102;47.526;19.072;2022-08-05T14:02:26;100066.97;;;59.48;5.13
62111;BME280;48102;47.526;19.072;2022-08-05T14:05:32;100052.91;;;59.16;5.63
62111;BME280;48102;47.526;19.072;2022-08-05T14:08:55;100061.34;;;60.80;5.11
62111;BME280;48102;47.526;19.072;2022-08-05T14:12:01;100067.72;;;61.79;3.64
62111;BME280;48102;47.526;19.072;2022-08-05T14:15:19;100059.38;;;62.15;4.20
62111;BME280;48102;47.526;19.072;2022-08-05T14:18:42;100055.22;;;61.69;4.30
62111;BME280;48102;47.526;19.072;2022-08-05T14:21:45;100051.66;;;62.36;4.29
62111;BME280;48102;47.526;19.072;2022-08-05T14:25:08;100044.13;;;62.22;4.39
62111;BME280;48102;47.526;19.072;2022-08-05T14:28:23;100043.16;;;61.85;4.83
62111;BME280;48102;47.526;19.072;2022-08-05T14:31:29;100037.22;;;61.76;3.71
62111;BME280;48102;47.526;19.072;2022-08-05T14:34:51;100031.66;;;61.65;4.21
62111;BME280;48102;47.526;19.072;2022-08-05T14:37:56;100026.38;;;61.64;4.13
62111;BME280;48102;47.526;19.072;2022-08-05T14:41:03;100038.78;;;61.81;3.82
62111;BME280;48102;47.526;19.072;2022-08-05T14:44:09;100029.72;;;61.86;3.90
62111;BME280;48102;47.526;19.072;2022-08-05T14:47:22;100031.50;;;61.49;4.58
62111;BME280;48102;47.526;19.072;2022-08-05T14:50:45;100030.78;;;62.39;3.51
62111;BME280;48102;47.526;19.072;2022-08-05T14:53:50;100022.69;;;62.57;3.45
62111;BME280;48102;47.526;19.072;2022-08-05T14:57:12;100017.50;;;61.85;4.05
62111;BME280;48102;47.526;19.072;2022-08-05T15:00:16;100013.31;;;61.90;3.94
62111;BME280;48102;47.526;19.072;2022-08-05T15:03:21;100002.41;;;61.34;4.43
62111;BME280;48102;47.526;19.072;2022-08-05T15:06:24;100003.78;;;62.43;3.67
62111;BME280;48102;47.526;19.072;2022-08-05T15:09:31;100004.16;;;62.65;3.55
62111;BME280;48102;47.526;19.072;2022-08-05T15:12:54;100007.63;;;63.13;3.19
